Time;durP1;ratioP1;P1;durP2;ratioP2;P2;SDS_P1;SDS_P2;PMS_P1;PMS_P2;Temp;Humidity;BMP_temperature;BMP_pressure;BME280_temperature;BME280_humidity;BME280_pressure;Samples;Min_cycle;Max_cycle;Signal;HPM_P1;HPM_P2
2022/06/25 00:02:24;;;;;;;4.33;2.10;;;;;;;;;;5001688;28;20698;-61
2022/06/25 00:07:39;;;;;;;6.90;2.23;;;;;;;;;;5001724;28;20241;-60
2022/06/25 00:10:08;;;;;;;2.20;2.00;;;;;;;;;;5001095;28;20236;-60
2022/06/25 00:12:35;;;;;;;3.10;2.43;;;;;;;;;;5001773;28;20211;-60
2022/06/25 00:15:03;;;;;;;3.07;2.20;;;;;;;;;;5001258;28;20225;-60
2022/06/25 00:17:32;;;;;;;2.63;2.40;;;;;;;;;;5014298;28;20722;-60
2022/06/25 00:20:01;;;;;;;2.30;2.03;;;;;;;;;;5001813;28;20254;-60
2022/06/25 00:22:29;;;;;;;3.40;2.10;;;;;;;;;;5001522;28;20212;-60
2022/06/25 00:24:58;;;;;;;1.73;1.63;;;;;;;;;;5020801;28;20230;-60
2022/06/25 00:27:26;;;;;;;4.13;2.00;;;;;;;;;;5001076;28;20689;-59
2022/06/25 00:29:54;;;;;;;2.57;2.33;;;;;;;;;;5001539;28;20212;-59
2022/06/25 00:32:22;;;;;;;3.73;2.00;;;;;;;;;;5001169;28;20677;-59
2022/06/25 00:34:50;;;;;;;1.80;1.70;;;;;;;;;;5002597;28;20228;-59
2022/06/25 00:37:18;;;;;;;6.60;2.50;;;;;;;;;;5001431;28;20212;-59
2022/06/25 00:39:46;;;;;;;3.07;1.77;;;;;;;;;;5001037;28;20233;-59
2022/06/25 00:42:16;;;;;;;3.07;2.10;;;;;;;;;;5001178;28;20243;-59
2022/06/25 00:44:45;;;;;;;2.83;2.20;;;;;;;;;;5003695;28;20344;-59
2022/06/25 00:47:14;;;;;;;2.03;1.77;;;;;;;;;;5001070;28;20213;-59
2022/06/25 00:49:43;;;;;;;2.63;2.17;;;;;;;;;;5000910;28;20574;-59
2022/06/25 00:52:12;;;;;;;4.20;2.30;;;;;;;;;;5000914;28;20209;-59
2022/06/25 00:54:49;;;;;;;2.30;1.90;;;;;;;;;;4999385;28;20230;-59
2022/06/25 00:57:20;;;;;;;3.47;1.97;;;;;;;;;;5008697;28;20241;-59
2022/06/25 00:59:49;;;;;;;2.33;2.13;;;;;;;;;;5020131;28;20320;-58
2022/06/25 01:02:17;;;;;;;2.50;2.00;;;;;;;;;;5020360;28;20635;-59
2022/06/25 01:04:45;;;;;;;3.77;1.97;;;;;;;;;;5019990;28;20228;-59
2022/06/25 01:07:13;;;;;;;2.53;2.23;;;;;;;;;;5020371;28;20266;-59
2022/06/25 01:09:41;;;;;;;4.47;2.27;;;;;;;;;;5020093;28;20205;-59
2022/06/25 01:12:09;;;;;;;2.60;2.10;;;;;;;;;;5020359;28;20244;-59
2022/06/25 01:14:39;;;;;;;3.83;2.10;;;;;;;;;;5020174;28;20255;-59
2022/06/25 01:17:07;;;;;;;2.97;2.10;;;;;;;;;;5019920;28;20719;-59
2022/06/25 01:19:35;;;;;;;4.10;2.10;;;;;;;;;;5019969;28;20266;-59
2022/06/25 01:22:05;;;;;;;5.83;2.30;;;;;;;;;;5020152;28;20267;-59
2022/06/25 01:24:33;;;;;;;3.53;2.10;;;;;;;;;;5023161;28;20225;-59
2022/06/25 01:27:01;;;;;;;2.60;1.80;;;;;;;;;;5000031;28;20213;-59
2022/06/25 01:29:29;;;;;;;2.97;1.60;;;;;;;;;;5007060;28;20265;-59
2022/06/25 01:31:57;;;;;;;1.80;1.70;;;;;;;;;;5019703;28;20220;-59
2022/06/25 01:34:25;;;;;;;1.90;1.80;;;;;;;;;;5012817;28;20743;-59
2022/06/25 01:36:53;;;;;;;2.20;1.77;;;;;;;;;;5000015;28;20213;-60
2022/06/25 01:39:23;;;;;;;3.57;1.43;;;;;;;;;;4999908;28;20210;-61
2022/06/25 01:41:51;;;;;;;1.50;1.40;;;;;;;;;;4999654;28;20218;-61
2022/06/25 01:44:19;;;;;;;2.43;1.60;;;;;;;;;;5002072;28;20230;-61
2022/06/25 01:46:47;;;;;;;4.43;1.50;;;;;;;;;;4999766;28;20219;-60
2022/06/25 01:49:15;;;;;;;2.00;1.53;;;;;;;;;;4999957;28;20209;-61
2022/06/25 01:51:43;;;;;;;3.53;1.70;;;;;;;;;;4999677;28;20739;-59
2022/06/25 01:54:11;;;;;;;2.90;1.63;;;;;;;;;;4999645;28;20621;-59
2022/06/25 01:56:40;;;;;;;1.47;1.30;;;;;;;;;;4999131;28;20312;-59
2022/06/25 01:59:08;;;;;;;2.00;1.40;;;;;;;;;;4999864;28;20240;-59
2022/06/25 02:01:36;;;;;;;2.00;1.27;;;;;;;;;;4999604;28;20278;-59
2022/06/25 02:04:04;;;;;;;1.73;1.40;;;;;;;;;;4999700;28;20286;-58
2022/06/25 02:06:32;;;;;;;1.77;1.60;;;;;;;;;;4999200;28;20287;-59
2022/06/25 02:09:00;;;;;;;1.47;1.40;;;;;;;;;;4999468;28;20657;-58
2022/06/25 02:11:28;;;;;;;2.13;1.50;;;;;;;;;;4998966;28;20640;-59
2022/06/25 02:13:58;;;;;;;1.73;1.40;;;;;;;;;;4999582;28;20264;-58
2022/06/25 02:16:25;;;;;;;1.83;1.60;;;;;;;;;;5004882;28;20235;-59
2022/06/25 02:18:54;;;;;;;1.83;1.60;;;;;;;;;;5007008;28;20209;-58
2022/06/25 02:21:22;;;;;;;1.47;1.37;;;;;;;;;;4999074;28;20360;-58
2022/06/25 02:23:50;;;;;;;1.70;1.60;;;;;;;;;;5018456;28;20345;-58
2022/06/25 02:26:17;;;;;;;1.60;1.50;;;;;;;;;;4999102;28;20247;-58
2022/06/25 02:28:45;;;;;;;1.73;1.63;;;;;;;;;;4999060;28;20240;-58
2022/06/25 02:31:15;;;;;;;3.60;1.60;;;;;;;;;;4999247;28;20220;-58
2022/06/25 02:33:43;;;;;;;4.43;1.67;;;;;;;;;;5001185;28;20235;-59
2022/06/25 02:36:11;;;;;;;4.73;1.60;;;;;;;;;;4999091;28;20240;-59
2022/06/25 02:38:39;;;;;;;1.97;1.83;;;;;;;;;;4999008;28;20209;-59
2022/06/25 02:41:07;;;;;;;3.30;1.60;;;;;;;;;;4998548;28;20272;-59
2022/06/25 02:43:35;;;;;;;4.50;1.70;;;;;;;;;;5001652;28;20267;-58
2022/06/25 02:46:03;;;;;;;2.63;1.60;;;;;;;;;;4998976;28;20213;-59
2022/06/25 02:48:33;;;;;;;1.63;1.53;;;;;;;;;;4998727;28;20680;-58
2022/06/25 02:51:01;;;;;;;4.37;1.77;;;;;;;;;;4999016;28;20204;-59
2022/06/25 02:53:29;;;;;;;2.03;1.50;;;;;;;;;;4998593;28;20232;-58
2022/06/25 03:01:31;;;;;;;2.63;1.70;;;;;;;;;;4996497;28;20317;-59
2022/06/25 03:04:00;;;;;;;3.40;1.67;;;;;;;;;;4998426;28;20228;-58
2022/06/25 03:06:28;;;;;;;1.77;1.67;;;;;;;;;;4998669;28;20209;-59
2022/06/25 03:08:57;;;;;;;1.53;1.43;;;;;;;;;;4998388;28;20208;-58
2022/06/25 03:11:25;;;;;;;1.70;1.60;;;;;;;;;;4997834;28;20232;-59
2022/06/25 03:13:53;;;;;;;2.00;1.80;;;;;;;;;;4998492;28;20264;-58
2022/06/25 03:16:21;;;;;;;2.30;1.87;;;;;;;;;;5002993;28;20201;-58
2022/06/25 03:18:50;;;;;;;2.97;1.60;;;;;;;;;;5017427;28;20243;-58
2022/06/25 03:21:20;;;;;;;2.73;1.73;;;;;;;;;;5017810;28;20228;-58
2022/06/25 03:23:48;;;;;;;6.97;3.90;;;;;;;;;;5027543;28;20277;-58
2022/06/25 03:26:16;;;;;;;2.47;1.50;;;;;;;;;;4998162;28;20243;-58
2022/06/25 03:28:44;;;;;;;1.90;1.80;;;;;;;;;;4998347;28;20208;-58
2022/06/25 03:31:12;;;;;;;2.73;1.97;;;;;;;;;;5005123;28;20212;-59
2022/06/25 03:33:40;;;;;;;2.10;2.00;;;;;;;;;;5018921;28;20232;-59
2022/06/25 03:36:08;;;;;;;3.77;2.00;;;;;;;;;;4998063;28;20236;-59
2022/06/25 03:38:37;;;;;;;2.03;1.83;;;;;;;;;;4998385;28;20208;-58
2022/06/25 03:43:50;;;;;;;2.57;1.87;;;;;;;;;;5001066;28;20236;-58
2022/06/25 03:46:18;;;;;;;2.30;1.70;;;;;;;;;;4998054;28;20240;-59
2022/06/25 03:48:46;;;;;;;1.80;1.70;;;;;;;;;;4997918;28;20219;-58
2022/06/25 03:51:14;;;;;;;2.40;2.13;;;;;;;;;;4997885;28;20209;-58
2022/06/25 03:53:44;;;;;;;1.60;1.50;;;;;;;;;;4998048;28;20229;-58
2022/06/25 03:56:12;;;;;;;4.33;1.77;;;;;;;;;;4997384;28;20247;-58
2022/06/25 03:58:40;;;;;;;2.37;1.53;;;;;;;;;;4997528;28;20241;-58
2022/06/25 04:01:08;;;;;;;2.13;1.80;;;;;;;;;;4997578;28;20633;-58
2022/06/25 04:03:36;;;;;;;4.07;1.40;;;;;;;;;;4997723;28;20229;-58
2022/06/25 04:06:04;;;;;;;1.53;1.43;;;;;;;;;;4997899;28;20213;-58
2022/06/25 04:08:32;;;;;;;2.67;1.40;;;;;;;;;;4997714;28;20205;-59
2022/06/25 04:11:02;;;;;;;1.57;1.30;;;;;;;;;;4997690;28;20245;-58
2022/06/25 04:13:30;;;;;;;1.30;1.30;;;;;;;;;;4998070;28;20275;-58
2022/06/25 04:15:58;;;;;;;2.27;1.33;;;;;;;;;;4999522;28;20240;-59
2022/06/25 04:18:26;;;;;;;1.60;1.23;;;;;;;;;;5008991;28;20213;-59
2022/06/25 04:20:54;;;;;;;3.43;1.40;;;;;;;;;;4997343;28;20225;-59
2022/06/25 04:23:23;;;;;;;3.10;1.47;;;;;;;;;;5009552;28;20227;-59
2022/06/25 04:25:50;;;;;;;3.03;1.63;;;;;;;;;;5004913;28;20204;-59
2022/06/25 04:31:05;;;;;;;1.67;1.57;;;;;;;;;;5001036;28;20213;-59
2022/06/25 04:33:34;;;;;;;1.10;1.10;;;;;;;;;;5002399;28;20263;-59
2022/06/25 04:36:01;;;;;;;4.00;1.50;;;;;;;;;;5001494;28;20247;-58
2022/06/25 04:38:30;;;;;;;2.77;1.40;;;;;;;;;;5001171;28;20668;-59
2022/06/25 04:40:58;;;;;;;2.17;1.23;;;;;;;;;;5000819;28;20243;-58
2022/06/25 04:43:27;;;;;;;1.60;1.50;;;;;;;;;;5003972;28;20235;-59
2022/06/25 04:45:55;;;;;;;2.93;1.60;;;;;;;;;;5001271;28;20241;-59
2022/06/25 04:48:23;;;;;;;1.50;1.37;;;;;;;;;;5001130;28;20208;-58
2022/06/25 04:50:51;;;;;;;2.57;2.37;;;;;;;;;;5001082;28;20213;-59
2022/06/25 04:53:19;;;;;;;5.53;1.80;;;;;;;;;;5000834;28;20225;-58
2022/06/25 04:55:47;;;;;;;1.70;1.60;;;;;;;;;;5000353;28;20680;-58
2022/06/25 04:58:15;;;;;;;5.07;1.67;;;;;;;;;;5000522;28;20248;-58
2022/06/25 05:00:45;;;;;;;1.73;1.63;;;;;;;;;;5000618;28;20235;-59
2022/06/25 05:03:13;;;;;;;1.43;1.33;;;;;;;;;;5000435;28;20247;-58
2022/06/25 05:05:41;;;;;;;2.73;1.50;;;;;;;;;;5000563;28;20209;-59
2022/06/25 05:08:09;;;;;;;1.60;1.50;;;;;;;;;;5000326;28;20679;-59
2022/06/25 05:10:37;;;;;;;2.23;1.37;;;;;;;;;;5000494;28;20240;-58
2022/06/25 05:13:14;;;;;;;2.13;1.57;;;;;;;;;;5000665;28;20256;-58
2022/06/25 05:15:43;;;;;;;1.77;1.40;;;;;;;;;;5000769;28;20208;-59
2022/06/25 05:18:13;;;;;;;1.30;1.17;;;;;;;;;;5000158;28;20710;-58
2022/06/25 05:20:41;;;;;;;1.40;1.20;;;;;;;;;;5000464;28;20248;-59
2022/06/25 05:23:10;;;;;;;1.27;1.10;;;;;;;;;;5008858;28;20262;-59
2022/06/25 05:25:38;;;;;;;2.83;1.40;;;;;;;;;;5010624;28;20205;-59
2022/06/25 05:28:06;;;;;;;1.50;1.37;;;;;;;;;;5000175;28;20680;-59
2022/06/25 05:30:34;;;;;;;2.10;1.50;;;;;;;;;;5000121;28;20560;-58
2022/06/25 05:33:03;;;;;;;1.37;1.20;;;;;;;;;;5000087;28;20304;-59
2022/06/25 05:35:33;;;;;;;3.70;1.53;;;;;;;;;;5002532;28;20205;-59
2022/06/25 05:38:05;;;;;;;3.47;1.53;;;;;;;;;;5000472;28;20308;-59
2022/06/25 05:40:33;;;;;;;1.63;1.53;;;;;;;;;;4998920;28;20600;-59
2022/06/25 05:43:01;;;;;;;2.10;1.50;;;;;;;;;;4999990;28;20589;-58
2022/06/25 05:45:29;;;;;;;1.50;1.40;;;;;;;;;;5001870;28;20673;-59
2022/06/25 05:47:57;;;;;;;2.10;1.27;;;;;;;;;;4999858;28;20577;-59
2022/06/25 05:50:25;;;;;;;2.20;1.57;;;;;;;;;;4999596;28;20712;-59
2022/06/25 05:52:55;;;;;;;2.07;1.40;;;;;;;;;;4999884;28;20201;-59
2022/06/25 05:55:23;;;;;;;1.83;1.53;;;;;;;;;;4999524;28;20209;-58
2022/06/25 05:57:51;;;;;;;2.17;1.50;;;;;;;;;;4999830;28;20275;-58
2022/06/25 06:00:20;;;;;;;2.03;1.80;;;;;;;;;;4999550;28;20228;-59
2022/06/25 06:02:47;;;;;;;3.87;1.80;;;;;;;;;;4999655;28;20316;-59
2022/06/25 06:05:16;;;;;;;3.50;1.60;;;;;;;;;;5005998;28;20208;-58
2022/06/25 06:07:44;;;;;;;4.87;1.50;;;;;;;;;;5019330;28;20212;-59
2022/06/25 06:10:13;;;;;;;1.60;1.47;;;;;;;;;;5018788;28;20235;-59
2022/06/25 06:12:41;;;;;;;2.07;1.83;;;;;;;;;;5018729;28;20618;-59
2022/06/25 06:15:10;;;;;;;3.57;1.67;;;;;;;;;;5018854;28;20236;-59
2022/06/25 06:17:38;;;;;;;3.37;1.60;;;;;;;;;;5016648;28;20248;-58
2022/06/25 06:20:07;;;;;;;1.97;1.70;;;;;;;;;;4999255;28;20209;-59
2022/06/25 06:22:35;;;;;;;1.60;1.50;;;;;;;;;;4999097;28;20260;-59
2022/06/25 06:25:03;;;;;;;1.23;1.23;;;;;;;;;;5019558;28;20240;-59
2022/06/25 06:27:32;;;;;;;1.83;1.60;;;;;;;;;;4999217;28;20220;-58
2022/06/25 06:30:01;;;;;;;3.60;1.53;;;;;;;;;;4999443;28;20263;-58
2022/06/25 06:32:29;;;;;;;3.60;1.53;;;;;;;;;;4999020;28;20271;-59
2022/06/25 06:34:57;;;;;;;1.80;1.70;;;;;;;;;;5001062;28;20213;-58
2022/06/25 06:37:25;;;;;;;1.73;1.60;;;;;;;;;;4998807;28;20248;-58
2022/06/25 06:39:53;;;;;;;1.87;1.50;;;;;;;;;;4998633;28;20264;-58
2022/06/25 06:42:21;;;;;;;1.90;1.70;;;;;;;;;;4998818;28;20225;-59
2022/06/25 06:44:51;;;;;;;4.43;1.53;;;;;;;;;;5001467;28;20229;-59
2022/06/25 06:47:19;;;;;;;2.50;1.30;;;;;;;;;;4998671;28;20212;-59
2022/06/25 06:49:47;;;;;;;4.20;1.40;;;;;;;;;;4998551;28;20711;-60
2022/06/25 06:52:15;;;;;;;3.27;1.80;;;;;;;;;;4998324;28;20209;-60
2022/06/25 06:54:43;;;;;;;1.63;1.53;;;;;;;;;;4998411;28;20279;-60
2022/06/25 06:57:11;;;;;;;5.47;3.60;;;;;;;;;;4998610;28;20283;-60
2022/06/25 06:59:38;;;;;;;1.70;1.60;;;;;;;;;;4998645;28;20212;-60
2022/06/25 07:02:08;;;;;;;1.67;1.57;;;;;;;;;;4998661;28;20213;-60
2022/06/25 07:04:36;;;;;;;1.83;1.33;;;;;;;;;;4998702;28;20227;-60
2022/06/25 07:07:04;;;;;;;3.67;1.90;;;;;;;;;;4998415;28;20252;-60
2022/06/25 07:09:32;;;;;;;1.57;1.47;;;;;;;;;;4997865;28;20263;-60
2022/06/25 07:12:00;;;;;;;4.20;1.60;;;;;;;;;;4998233;28;20240;-60
2022/06/25 07:14:28;;;;;;;4.03;1.70;;;;;;;;;;4998206;28;20645;-60
2022/06/25 07:16:56;;;;;;;2.57;1.53;;;;;;;;;;5007865;28;20236;-60
2022/06/25 07:19:26;;;;;;;2.50;1.63;;;;;;;;;;5001121;28;20214;-60
2022/06/25 07:21:54;;;;;;;2.73;1.40;;;;;;;;;;4998490;28;20210;-60
2022/06/25 07:24:22;;;;;;;3.60;1.60;;;;;;;;;;5017663;28;20232;-60
2022/06/25 07:26:50;;;;;;;2.63;1.70;;;;;;;;;;4998317;28;20264;-60
2022/06/25 07:29:18;;;;;;;2.00;1.77;;;;;;;;;;4997969;28;20741;-60
2022/06/25 07:31:46;;;;;;;5.13;2.37;;;;;;;;;;4998391;28;20244;-60
2022/06/25 07:34:15;;;;;;;1.70;1.60;;;;;;;;;;4999961;28;20225;-60
2022/06/25 07:36:45;;;;;;;4.70;1.83;;;;;;;;;;4998297;28;20205;-60
2022/06/25 07:39:13;;;;;;;2.60;1.60;;;;;;;;;;4997711;28;20245;-60
2022/06/25 07:41:41;;;;;;;3.53;1.50;;;;;;;;;;4997997;28;20726;-60
2022/06/25 07:44:09;;;;;;;1.63;1.30;;;;;;;;;;5000501;28;20717;-60
2022/06/25 07:46:36;;;;;;;1.30;1.20;;;;;;;;;;4997845;28;20209;-60
2022/06/25 07:49:05;;;;;;;1.37;1.27;;;;;;;;;;4998093;28;20209;-60
2022/06/25 07:54:20;;;;;;;1.23;1.20;;;;;;;;;;4997539;28;20580;-60
2022/06/25 07:56:48;;;;;;;1.53;1.43;;;;;;;;;;4997671;28;20275;-60
2022/06/25 07:59:16;;;;;;;1.50;1.27;;;;;;;;;;4998040;28;20214;-60
2022/06/25 08:01:43;;;;;;;1.07;1.00;;;;;;;;;;4998088;28;20218;-60
2022/06/25 08:04:12;;;;;;;2.87;1.50;;;;;;;;;;4999139;28;20592;-60
2022/06/25 08:06:41;;;;;;;1.10;1.10;;;;;;;;;;5001478;28;20211;-61
2022/06/25 08:09:10;;;;;;;1.67;1.43;;;;;;;;;;5001815;28;20210;-61
2022/06/25 08:11:39;;;;;;;1.50;1.40;;;;;;;;;;5001666;28;20208;-60
2022/06/25 08:14:07;;;;;;;1.07;1.07;;;;;;;;;;5010914;28;20226;-61
2022/06/25 08:16:37;;;;;;;2.97;1.30;;;;;;;;;;5016898;28;20648;-60
2022/06/25 08:19:05;;;;;;;1.47;1.37;;;;;;;;;;5011199;28;20207;-60
2022/06/25 08:21:33;;;;;;;1.30;1.20;;;;;;;;;;5009582;28;20254;-58
2022/06/25 08:24:01;;;;;;;1.37;1.20;;;;;;;;;;5016902;28;20282;-59
2022/06/25 08:26:29;;;;;;;2.27;1.27;;;;;;;;;;5012530;28;20214;-59
2022/06/25 08:28:59;;;;;;;4.67;1.53;;;;;;;;;;5012699;28;20231;-59
2022/06/25 08:31:29;;;;;;;1.53;1.20;;;;;;;;;;5009248;28;20662;-59
2022/06/25 08:33:58;;;;;;;1.77;1.30;;;;;;;;;;5010434;28;20259;-59
2022/06/25 08:36:26;;;;;;;1.77;1.27;;;;;;;;;;5006171;28;20216;-59
2022/06/25 08:38:54;;;;;;;3.37;1.53;;;;;;;;;;5003595;28;20247;-59
2022/06/25 08:41:22;;;;;;;1.80;1.47;;;;;;;;;;5000530;28;20258;-59
2022/06/25 08:43:50;;;;;;;1.30;1.20;;;;;;;;;;5003291;28;20239;-59
2022/06/25 08:46:19;;;;;;;1.37;1.37;;;;;;;;;;5001246;28;20238;-59
2022/06/25 08:48:49;;;;;;;1.50;1.10;;;;;;;;;;5001012;28;20245;-58
2022/06/25 08:51:19;;;;;;;1.00;1.00;;;;;;;;;;5001137;28;20238;-59
2022/06/25 08:53:48;;;;;;;1.50;1.40;;;;;;;;;;5000641;28;20248;-59
2022/06/25 08:56:17;;;;;;;1.23;1.00;;;;;;;;;;5000406;28;20234;-59
2022/06/25 08:58:45;;;;;;;1.23;1.10;;;;;;;;;;5000578;28;20303;-59
2022/06/25 09:01:13;;;;;;;1.97;1.17;;;;;;;;;;5000863;28;20205;-59
2022/06/25 09:03:45;;;;;;;1.73;1.10;;;;;;;;;;5000360;28;20267;-59
2022/06/25 09:06:14;;;;;;;2.83;1.30;;;;;;;;;;5000332;28;20209;-59
2022/06/25 09:08:43;;;;;;;2.57;1.27;;;;;;;;;;5000454;28;20553;-59
2022/06/25 09:11:11;;;;;;;1.33;1.10;;;;;;;;;;5000350;28;20213;-59
2022/06/25 09:13:39;;;;;;;1.67;1.07;;;;;;;;;;5000632;28;20268;-59
2022/06/25 09:16:07;;;;;;;2.53;1.20;;;;;;;;;;5002459;28;20241;-59
2022/06/25 09:18:35;;;;;;;2.43;1.30;;;;;;;;;;5010299;28;20211;-59
2022/06/25 09:21:05;;;;;;;2.07;1.30;;;;;;;;;;5000418;28;20237;-59
2022/06/25 09:23:34;;;;;;;1.23;1.13;;;;;;;;;;5014914;28;20288;-59
2022/06/25 09:26:05;;;;;;;1.13;0.90;;;;;;;;;;5003294;28;20223;-59
2022/06/25 09:28:34;;;;;;;2.20;1.20;;;;;;;;;;5000168;28;20262;-59
2022/06/25 09:31:02;;;;;;;3.60;1.20;;;;;;;;;;5000169;28;20243;-59
2022/06/25 09:33:30;;;;;;;2.93;1.30;;;;;;;;;;5000630;28;20244;-59
2022/06/25 09:35:59;;;;;;;2.80;1.27;;;;;;;;;;5000999;28;20209;-59
2022/06/25 09:38:28;;;;;;;1.27;1.23;;;;;;;;;;4999931;28;20289;-59
2022/06/25 09:40:57;;;;;;;2.30;2.10;;;;;;;;;;5006648;28;20212;-59
2022/06/25 09:43:26;;;;;;;3.37;2.73;;;;;;;;;;5018643;28;20232;-59
2022/06/25 09:45:54;;;;;;;5.67;1.50;;;;;;;;;;5000060;28;20254;-59
2022/06/25 09:48:24;;;;;;;2.27;1.20;;;;;;;;;;5000170;28;20240;-59
2022/06/25 09:51:08;;;;;;;4.27;1.30;;;;;;;;;;5000032;28;20245;-59
2022/06/25 09:53:45;;;;;;;3.07;1.10;;;;;;;;;;4999903;28;20228;-61
2022/06/25 09:56:14;;;;;;;1.53;1.17;;;;;;;;;;4999370;28;20206;-61
2022/06/25 09:58:43;;;;;;;2.20;1.20;;;;;;;;;;4999292;28;20779;-60
2022/06/25 10:01:11;;;;;;;2.10;1.40;;;;;;;;;;4999836;28;20242;-60
2022/06/25 10:03:39;;;;;;;3.70;1.33;;;;;;;;;;5006599;28;20241;-60
2022/06/25 10:06:13;;;;;;;2.00;1.33;;;;;;;;;;5019100;28;20661;-58
2022/06/25 10:08:47;;;;;;;7.17;2.37;;;;;;;;;;5019344;28;20209;-59
2022/06/25 10:11:15;;;;;;;1.50;1.40;;;;;;;;;;5018914;28;20209;-59
2022/06/25 10:13:43;;;;;;;1.63;1.30;;;;;;;;;;5018916;28;20260;-59
2022/06/25 10:16:11;;;;;;;1.80;1.20;;;;;;;;;;5019037;28;20200;-59
2022/06/25 10:18:39;;;;;;;2.23;1.00;;;;;;;;;;5008545;28;20213;-59
2022/06/25 10:21:07;;;;;;;1.20;1.10;;;;;;;;;;4999080;28;20572;-58
2022/06/25 10:23:39;;;;;;;1.53;1.20;;;;;;;;;;5015356;28;20257;-58
2022/06/25 10:26:09;;;;;;;2.07;1.30;;;;;;;;;;5000909;28;20260;-59
2022/06/25 10:28:37;;;;;;;3.50;1.10;;;;;;;;;;4998999;28;20208;-59
2022/06/25 10:31:07;;;;;;;1.20;1.10;;;;;;;;;;4998950;28;20225;-59
2022/06/25 10:33:37;;;;;;;2.63;1.20;;;;;;;;;;5000228;28;20232;-59
2022/06/25 10:36:05;;;;;;;1.43;1.33;;;;;;;;;;4999176;28;20212;-59
2022/06/25 10:38:33;;;;;;;3.10;1.40;;;;;;;;;;4999042;28;20264;-59
2022/06/25 10:42:58;;;;;;;1.00;1.00;;;;;;;;;;4998774;28;20247;-59
2022/06/25 10:43:53;;;;;;;2.30;0.90;;;;;;;;;;5000907;28;20229;-59
2022/06/25 10:46:26;;;;;;;3.23;1.10;;;;;;;;;;4998940;28;20275;-59
2022/06/25 10:48:58;;;;;;;2.90;1.00;;;;;;;;;;4998520;28;20263;-59
2022/06/25 10:51:30;;;;;;;1.80;1.00;;;;;;;;;;4998831;28;20269;-59
2022/06/25 10:53:59;;;;;;;0.90;0.90;;;;;;;;;;4998602;28;20228;-59
2022/06/25 10:56:27;;;;;;;1.10;1.10;;;;;;;;;;4997989;28;20664;-59
2022/06/25 10:58:57;;;;;;;1.00;1.00;;;;;;;;;;4998506;28;20719;-59
2022/06/25 11:01:33;;;;;;;2.93;1.10;;;;;;;;;;4998638;28;20214;-59
2022/06/25 11:04:03;;;;;;;9.80;1.20;;;;;;;;;;4998320;28;20229;-59
2022/06/25 11:06:33;;;;;;;3.43;0.80;;;;;;;;;;4998717;28;20232;-59
2022/06/25 11:09:06;;;;;;;0.80;0.80;;;;;;;;;;4998232;28;20226;-59
2022/06/25 11:11:35;;;;;;;1.30;0.80;;;;;;;;;;4998435;28;20213;-59
2022/06/25 11:14:12;;;;;;;4.30;1.27;;;;;;;;;;4998021;28;20262;-59
2022/06/25 11:16:40;;;;;;;2.50;0.90;;;;;;;;;;5005505;28;20201;-59
2022/06/25 11:19:08;;;;;;;1.30;1.20;;;;;;;;;;5003572;28;20215;-59
2022/06/25 11:21:37;;;;;;;0.80;0.80;;;;;;;;;;4998276;28;20268;-59
2022/06/25 11:24:13;;;;;;;0.70;0.70;;;;;;;;;;5018157;28;20264;-59
2022/06/25 11:29:30;;;;;;;2.03;1.00;;;;;;;;;;4998016;28;20242;-59
2022/06/25 11:31:59;;;;;;;4.03;0.90;;;;;;;;;;4998175;28;20207;-59
2022/06/25 11:34:27;;;;;;;1.73;0.90;;;;;;;;;;5001107;28;20251;-59
2022/06/25 11:37:03;;;;;;;0.80;0.80;;;;;;;;;;4998038;28;20216;-60
2022/06/25 11:39:31;;;;;;;0.90;0.90;;;;;;;;;;4997298;28;20265;-60
2022/06/25 11:42:00;;;;;;;1.80;0.90;;;;;;;;;;4997978;28;20243;-61
2022/06/25 11:44:37;;;;;;;0.90;0.90;;;;;;;;;;5001493;28;20765;-59
2022/06/25 11:47:05;;;;;;;2.00;1.10;;;;;;;;;;4998243;28;20238;-59
2022/06/25 11:49:37;;;;;;;0.90;0.90;;;;;;;;;;4997985;28;20662;-60
2022/06/25 11:52:06;;;;;;;0.93;0.87;;;;;;;;;;4997919;28;20268;-61
2022/06/25 11:54:36;;;;;;;1.07;0.80;;;;;;;;;;4997741;28;20236;-60
2022/06/25 11:57:05;;;;;;;2.67;0.80;;;;;;;;;;4997747;28;20237;-59
2022/06/25 11:59:36;;;;;;;4.60;1.00;;;;;;;;;;4997947;28;20262;-60
2022/06/25 12:02:05;;;;;;;1.37;0.80;;;;;;;;;;4997951;28;20216;-61
2022/06/25 12:04:33;;;;;;;2.03;0.90;;;;;;;;;;4997701;28;20281;-61
2022/06/25 12:07:03;;;;;;;0.80;0.80;;;;;;;;;;4997610;28;20627;-61
2022/06/25 12:09:31;;;;;;;0.70;0.70;;;;;;;;;;4997802;28;20249;-61
2022/06/25 12:11:59;;;;;;;0.63;0.63;;;;;;;;;;4997454;28;20214;-61
2022/06/25 12:14:28;;;;;;;1.17;1.00;;;;;;;;;;4998219;28;20268;-61
2022/06/25 12:16:59;;;;;;;1.90;0.80;;;;;;;;;;5007252;28;20202;-60
2022/06/25 12:19:43;;;;;;;0.63;0.60;;;;;;;;;;5000705;28;20204;-61
2022/06/25 12:22:18;;;;;;;3.63;0.90;;;;;;;;;;4997786;28;20233;-61
2022/06/25 12:24:46;;;;;;;1.57;1.00;;;;;;;;;;5016554;28;20226;-61
2022/06/25 12:27:14;;;;;;;1.50;0.80;;;;;;;;;;4997583;28;20233;-60
2022/06/25 12:29:45;;;;;;;0.80;0.80;;;;;;;;;;4997702;28;20217;-61
2022/06/25 12:32:14;;;;;;;2.10;1.00;;;;;;;;;;4997598;28;20219;-61
2022/06/25 12:34:49;;;;;;;0.83;0.83;;;;;;;;;;4999131;28;20566;-61
2022/06/25 12:37:29;;;;;;;3.23;0.90;;;;;;;;;;4997376;28;20212;-61
2022/06/25 12:39:59;;;;;;;0.80;0.70;;;;;;;;;;4997212;28;20673;-61
2022/06/25 12:42:28;;;;;;;1.40;0.73;;;;;;;;;;4997292;28;20218;-60
2022/06/25 12:44:57;;;;;;;0.90;0.70;;;;;;;;;;5000266;28;20226;-61
2022/06/25 12:47:38;;;;;;;0.87;0.87;;;;;;;;;;5004393;28;20267;-61
2022/06/25 12:50:06;;;;;;;1.10;1.00;;;;;;;;;;5017082;28;20248;-60
2022/06/25 12:52:36;;;;;;;3.27;0.67;;;;;;;;;;5020154;28;20220;-61
2022/06/25 12:55:05;;;;;;;1.10;0.57;;;;;;;;;;5020016;28;20248;-61
2022/06/25 12:57:34;;;;;;;1.17;0.70;;;;;;;;;;5020123;28;20268;-61
2022/06/25 13:00:04;;;;;;;1.13;0.67;;;;;;;;;;5020353;28;20273;-61
2022/06/25 13:02:41;;;;;;;2.23;1.00;;;;;;;;;;5020274;28;20567;-61
2022/06/25 13:05:14;;;;;;;5.00;0.87;;;;;;;;;;5020267;28;20209;-60
2022/06/25 13:07:43;;;;;;;0.67;0.67;;;;;;;;;;5020202;28;20681;-59
2022/06/25 13:10:11;;;;;;;0.60;0.60;;;;;;;;;;5019957;28;20279;-59
2022/06/25 13:12:39;;;;;;;1.50;0.90;;;;;;;;;;5020102;28;20212;-60
2022/06/25 13:15:08;;;;;;;0.73;0.73;;;;;;;;;;5020301;28;20239;-61
2022/06/25 13:17:36;;;;;;;0.97;0.87;;;;;;;;;;5018307;28;20211;-59
2022/06/25 13:20:07;;;;;;;0.73;0.73;;;;;;;;;;5000503;28;20210;-60
2022/06/25 13:22:35;;;;;;;1.43;0.70;;;;;;;;;;5000391;28;20265;-61
2022/06/25 13:25:05;;;;;;;0.97;0.70;;;;;;;;;;5020601;28;20234;-61
2022/06/25 13:27:34;;;;;;;0.83;0.80;;;;;;;;;;5000187;28;20745;-61
2022/06/25 13:30:03;;;;;;;0.97;0.70;;;;;;;;;;5000360;28;20221;-60
2022/06/25 13:32:31;;;;;;;0.90;0.90;;;;;;;;;;5000104;28;20209;-60
2022/06/25 13:35:00;;;;;;;0.63;0.60;;;;;;;;;;5002575;28;20276;-60
2022/06/25 13:37:29;;;;;;;1.10;0.90;;;;;;;;;;4999767;28;20204;-60
2022/06/25 13:39:58;;;;;;;0.97;0.73;;;;;;;;;;5000040;28;20209;-61
2022/06/25 13:42:26;;;;;;;0.73;0.73;;;;;;;;;;4999863;28;20216;-60
2022/06/25 13:44:54;;;;;;;1.20;0.80;;;;;;;;;;5002798;28;20230;-61
2022/06/25 13:47:22;;;;;;;3.90;0.90;;;;;;;;;;4999817;28;20263;-60
2022/06/25 13:49:50;;;;;;;0.67;0.67;;;;;;;;;;4999818;28;20240;-59
2022/06/25 13:52:18;;;;;;;0.80;0.80;;;;;;;;;;4999609;28;20258;-59
2022/06/25 13:54:47;;;;;;;0.60;0.60;;;;;;;;;;4999439;28;20259;-60
2022/06/25 13:57:15;;;;;;;1.20;1.10;;;;;;;;;;4999433;28;20646;-61
2022/06/25 13:59:43;;;;;;;11.43;1.20;;;;;;;;;;4999269;28;20217;-59
2022/06/25 14:02:11;;;;;;;0.80;0.80;;;;;;;;;;4999016;28;20643;-61
2022/06/25 14:04:40;;;;;;;1.50;0.87;;;;;;;;;;4999485;28;20235;-61
2022/06/25 14:07:08;;;;;;;0.87;0.87;;;;;;;;;;4999329;28;20232;-61
2022/06/25 14:09:36;;;;;;;2.10;0.80;;;;;;;;;;4999104;28;20263;-60
2022/06/25 14:12:06;;;;;;;0.70;0.70;;;;;;;;;;4999428;28;20240;-61
2022/06/25 14:14:34;;;;;;;1.83;0.90;;;;;;;;;;4999056;28;20711;-61
2022/06/25 14:17:02;;;;;;;1.13;0.70;;;;;;;;;;5009930;28;20208;-61
2022/06/25 14:19:30;;;;;;;0.80;0.80;;;;;;;;;;5001856;28;20220;-61
2022/06/25 14:21:59;;;;;;;1.17;0.90;;;;;;;;;;4999340;28;20554;-61
2022/06/25 14:27:14;;;;;;;0.80;0.80;;;;;;;;;;4998909;28;20749;-61
2022/06/25 14:29:42;;;;;;;2.03;0.80;;;;;;;;;;4999169;28;20236;-60
2022/06/25 14:32:10;;;;;;;1.37;0.80;;;;;;;;;;4999188;28;20218;-61
2022/06/25 14:34:38;;;;;;;0.90;0.90;;;;;;;;;;5000915;28;20224;-61
2022/06/25 14:42:38;;;;;;;1.57;0.80;;;;;;;;;;5005785;28;20239;-61
2022/06/25 14:45:07;;;;;;;2.53;0.90;;;;;;;;;;5004290;28;20239;-61
2022/06/25 14:47:35;;;;;;;0.80;0.80;;;;;;;;;;4998573;28;20230;-61
2022/06/25 14:50:04;;;;;;;0.90;0.90;;;;;;;;;;4998691;28;20210;-61
2022/06/25 14:52:32;;;;;;;0.77;0.77;;;;;;;;;;4998974;28;20242;-61
2022/06/25 14:55:01;;;;;;;1.07;0.80;;;;;;;;;;4998385;28;20230;-61
2022/06/25 14:57:29;;;;;;;0.70;0.70;;;;;;;;;;4998271;28;20241;-61
2022/06/25 14:59:58;;;;;;;0.80;0.80;;;;;;;;;;4998262;28;20231;-61
2022/06/25 15:02:26;;;;;;;1.80;1.00;;;;;;;;;;4998336;28;20227;-61
2022/06/25 15:04:54;;;;;;;0.80;0.80;;;;;;;;;;4998613;28;20256;-61
2022/06/25 15:07:23;;;;;;;0.97;0.93;;;;;;;;;;4998641;28;20231;-61
2022/06/25 15:09:51;;;;;;;1.17;0.90;;;;;;;;;;4998020;28;20211;-61
2022/06/25 15:12:20;;;;;;;2.22;0.93;;;;;;;;;;4998208;28;20213;-61
2022/06/25 15:14:48;;;;;;;2.35;1.17;;;;;;;;;;4997521;28;20234;-61
2022/06/25 15:17:17;;;;;;;1.27;0.90;;;;;;;;;;5010627;28;20257;-61
2022/06/25 15:19:45;;;;;;;1.37;1.27;;;;;;;;;;4998356;28;20266;-61
2022/06/25 15:22:13;;;;;;;1.67;1.10;;;;;;;;;;4998182;28;20223;-61